createdAt,value
2018-11-21T00:00:24.276Z,99081.85
2018-11-21T00:03:11.561Z,99078.93
2018-11-21T00:05:51.430Z,98905.30
2018-11-21T00:08:38.652Z,99082.41
2018-11-21T00:11:18.971Z,98953.08
2018-11-21T00:14:06.455Z,99083.41
2018-11-21T00:16:46.430Z,98907.66
2018-11-21T00:19:33.607Z,99083.89
2018-11-21T00:22:14.114Z,98914.13
2018-11-21T00:25:01.356Z,99086.98
2018-11-21T00:27:42.122Z,99072.57
2018-11-21T00:30:29.297Z,99071.75
2018-11-21T00:33:10.155Z,99076.06
2018-11-21T00:35:57.590Z,98912.33
2018-11-21T00:38:37.635Z,98898.38
2018-11-21T00:41:24.798Z,98897.78
2018-11-21T00:44:05.411Z,98892.88
2018-11-21T00:46:52.582Z,98945.94
2018-11-21T00:49:32.811Z,99072.45
2018-11-21T00:52:19.997Z,99072.97
2018-11-21T00:55:00.129Z,98901.59
2018-11-21T00:57:47.305Z,99080.19
2018-11-21T01:00:27.224Z,99081.96
2018-11-21T01:03:14.471Z,98920.53
2018-11-21T01:05:54.469Z,99085.49
2018-11-21T01:08:41.649Z,98928.73
2018-11-21T01:11:21.690Z,99089.29
2018-11-21T01:14:08.902Z,99092.77
2018-11-21T01:16:48.957Z,99090.46
2018-11-21T01:19:36.139Z,99093.56
2018-11-21T01:22:16.398Z,99096.17
2018-11-21T01:25:03.669Z,99091.88
2018-11-21T01:27:44.845Z,98943.31
2018-11-21T01:30:32.040Z,98908.17
2018-11-21T01:33:12.540Z,98954.23
2018-11-21T01:35:59.701Z,99096.17
2018-11-21T01:38:39.795Z,99092.55
2018-11-21T01:41:26.957Z,99092.52
2018-11-21T01:44:07.815Z,99100.46
2018-11-21T01:46:55.039Z,99091.98
2018-11-21T01:49:35.642Z,99094.93
2018-11-21T01:52:25.127Z,99103.31
2018-11-21T01:54:52.836Z,99109.32
2018-11-21T01:57:40.032Z,98928.83
2018-11-21T02:00:27.219Z,99109.89
2018-11-21T02:03:07.979Z,99107.59
2018-11-21T02:05:55.170Z,99116.73
2018-11-21T02:08:35.459Z,98967.66
2018-11-21T02:11:22.672Z,99117.41
2018-11-21T02:14:10.195Z,98945.39
2018-11-21T02:16:48.495Z,99107.72
2018-11-21T02:19:28.673Z,99112.95
2018-11-21T02:22:15.819Z,98932.52
2018-11-21T02:24:55.934Z,98942.19
2018-11-21T02:27:43.080Z,99115.12
2018-11-21T02:30:23.697Z,99121.83
2018-11-21T02:33:10.936Z,99129.75
2018-11-21T02:35:51.164Z,99130.19
2018-11-21T02:38:38.639Z,99137.45
2018-11-21T02:41:18.627Z,99143.37
2018-11-21T02:44:05.938Z,99139.53
2018-11-21T02:46:45.878Z,99016.31
2018-11-21T02:49:33.006Z,99144.31
2018-11-21T02:52:13.216Z,99145.01
2018-11-21T02:55:00.406Z,98960.75
2018-11-21T02:57:40.542Z,99144.83
2018-11-21T03:00:28.037Z,99142.52
2018-11-21T03:03:06.324Z,99149.88
2018-11-21T03:05:53.507Z,98997.58
2018-11-21T03:08:33.404Z,99160.50
2018-11-21T03:11:20.571Z,99168.04
2018-11-21T03:14:00.858Z,98980.75
2018-11-21T03:16:50.769Z,99170.73
2018-11-21T03:19:30.924Z,99168.80
2018-11-21T03:22:18.068Z,98994.95
2018-11-21T03:24:58.236Z,99086.78
2018-11-21T03:27:45.970Z,99189.03
2018-11-21T03:30:26.450Z,99196.36
2018-11-21T03:33:13.614Z,99059.92
2018-11-21T03:35:53.968Z,99156.61
2018-11-21T03:38:41.167Z,99205.70
2018-11-21T03:41:21.166Z,99209.34
2018-11-21T03:44:08.315Z,99033.52
2018-11-21T03:46:48.827Z,99203.37
2018-11-21T03:49:35.980Z,99207.20
2018-11-21T03:52:15.972Z,99033.45
2018-11-21T03:55:03.103Z,99222.83
2018-11-21T03:57:43.030Z,99217.91
2018-11-21T04:00:30.237Z,99220.87
2018-11-21T04:03:10.586Z,99225.53
2018-11-21T04:05:57.756Z,99225.73
2018-11-21T04:08:42.506Z,99221.67
2018-11-21T04:11:25.151Z,99224.97
2018-11-21T04:14:05.526Z,99227.03
2018-11-21T04:16:52.715Z,99231.03
2018-11-21T04:19:32.611Z,99231.16
2018-11-21T04:22:19.862Z,99081.66
2018-11-21T04:24:59.907Z,99228.34
2018-11-21T04:27:47.112Z,99235.22
2018-11-21T04:30:30.054Z,99088.36
2018-11-21T04:33:17.216Z,99237.03
2018-11-21T04:35:57.984Z,99230.59
2018-11-21T04:38:45.178Z,99233.11
2018-11-21T04:41:25.260Z,99232.41
2018-11-21T04:44:14.068Z,99046.65
2018-11-21T04:46:54.552Z,99232.14
2018-11-21T04:49:41.702Z,99092.57
2018-11-21T04:52:21.653Z,99228.73
2018-11-21T04:55:09.140Z,99230.38
2018-11-21T04:57:49.050Z,99035.05
2018-11-21T05:00:36.236Z,99235.36
2018-11-21T05:03:16.601Z,99236.67
2018-11-21T05:06:03.852Z,99237.80
2018-11-21T05:08:43.993Z,99076.06
2018-11-21T05:11:31.103Z,99247.10
2018-11-21T05:14:11.213Z,99245.13
2018-11-21T05:16:58.426Z,99243.27
2018-11-21T05:19:38.645Z,99091.95
2018-11-21T05:22:25.785Z,99240.55
2018-11-21T05:25:06.543Z,99242.30
2018-11-21T05:27:53.699Z,99242.83
2018-11-21T05:30:34.526Z,99055.87
2018-11-21T05:33:22.790Z,99230.00
2018-11-21T05:36:03.398Z,99106.61
2018-11-21T05:38:50.566Z,99066.59
2018-11-21T05:41:30.765Z,99239.80
2018-11-21T05:44:17.996Z,99248.48
2018-11-21T05:46:58.225Z,99257.19
2018-11-21T05:49:45.429Z,99259.87
2018-11-21T05:52:32.585Z,99095.19
2018-11-21T05:55:12.454Z,99105.58
2018-11-21T05:57:59.625Z,99259.39
2018-11-21T06:00:39.653Z,99257.66
2018-11-21T06:03:27.648Z,99258.34
2018-11-21T06:06:10.082Z,99258.30
2018-11-21T06:08:55.156Z,99242.88
2018-11-21T06:11:35.442Z,99261.91
2018-11-21T06:14:22.608Z,99266.39
2018-11-21T06:16:50.283Z,99271.97
2018-11-21T06:19:37.429Z,99146.02
2018-11-21T06:22:17.981Z,99264.39
2018-11-21T06:25:06.383Z,99268.78
2018-11-21T06:27:46.918Z,99132.63
2018-11-21T06:30:34.054Z,99296.31
2018-11-21T06:33:14.886Z,99299.83
2018-11-21T06:36:02.003Z,99291.73
2018-11-21T06:38:42.515Z,99324.03
2018-11-21T06:41:29.695Z,99328.45
2018-11-21T06:44:10.250Z,99333.38
2018-11-21T06:46:57.463Z,99342.73
2018-11-21T06:49:38.075Z,99349.54
2018-11-21T06:52:25.255Z,99348.78
2018-11-21T06:55:05.271Z,99354.97
2018-11-21T06:57:52.371Z,99360.66
2018-11-21T07:00:32.309Z,99354.86
2018-11-21T07:03:19.441Z,99353.76
2018-11-21T07:05:59.652Z,99357.56
2018-11-21T07:08:46.847Z,99357.77
2018-11-21T07:11:27.424Z,99189.04
2018-11-21T07:14:15.722Z,99357.66
2018-11-21T07:17:02.885Z,99363.95
2018-11-21T07:19:43.312Z,99366.83
2018-11-21T07:22:30.523Z,99251.84
2018-11-21T07:25:12.011Z,99204.41
2018-11-21T07:27:59.180Z,99248.60
2018-11-21T07:30:39.162Z,99262.34
2018-11-21T07:33:26.351Z,99221.67
2018-11-21T07:36:06.233Z,99264.37
2018-11-21T07:38:53.414Z,99395.93
2018-11-21T07:41:33.361Z,99397.42
2018-11-21T07:44:20.604Z,99396.44
2018-11-21T07:47:00.761Z,99395.73
2018-11-21T07:49:48.030Z,99386.42
2018-11-21T07:52:35.343Z,99386.96
2018-11-21T07:55:22.611Z,99380.34
2018-11-21T07:58:05.199Z,99391.54
2018-11-21T08:01:31.461Z,99237.50
2018-11-21T08:04:16.653Z,99387.98
2018-11-21T08:07:23.583Z,99391.99
2018-11-21T08:10:16.643Z,99389.81
2018-11-21T08:13:23.328Z,99238.56
2018-11-21T08:16:23.212Z,99398.73
2018-11-21T08:19:29.959Z,99392.04
2018-11-21T08:22:29.904Z,99250.79
2018-11-21T08:25:29.899Z,99404.47
2018-11-21T08:28:25.765Z,99404.63
2018-11-21T08:31:06.561Z,99409.14
2018-11-21T08:33:53.701Z,99413.52
2018-11-21T08:36:34.106Z,99417.77
2018-11-21T08:39:21.299Z,99283.29
2018-11-21T08:42:01.201Z,99261.48
2018-11-21T08:44:48.352Z,99416.58
2018-11-21T08:47:35.595Z,99417.92
2018-11-21T08:50:15.452Z,99416.36
2018-11-21T08:53:02.963Z,99417.88
2018-11-21T08:55:43.758Z,99424.93
2018-11-21T08:58:30.977Z,99423.89
2018-11-21T09:01:11.436Z,99425.61
2018-11-21T09:03:59.693Z,99430.52
2018-11-21T09:06:40.149Z,99428.73
2018-11-21T09:09:27.337Z,99430.72
2018-11-21T09:12:08.774Z,99418.71
2018-11-21T09:14:54.616Z,99305.77
2018-11-21T09:17:35.346Z,99437.41
2018-11-21T09:20:22.491Z,99442.57
2018-11-21T09:23:03.246Z,99442.98
2018-11-21T09:25:50.466Z,99282.42
2018-11-21T09:28:28.687Z,99444.97
2018-11-21T09:31:08.908Z,99445.05
2018-11-21T09:33:47.188Z,99448.08
2018-11-21T09:36:27.709Z,99447.36
2018-11-21T09:39:14.944Z,99443.38
2018-11-21T09:41:55.118Z,99325.67
2018-11-21T09:44:42.439Z,99443.42
2018-11-21T09:47:49.161Z,99449.05
2018-11-21T09:50:31.021Z,99287.91
2018-11-21T09:53:19.456Z,99444.03
2018-11-21T09:55:59.079Z,99448.00
2018-11-21T09:58:46.205Z,99451.16
2018-11-21T10:02:12.447Z,99449.85
2018-11-21T10:04:59.601Z,99295.67
2018-11-21T10:08:25.835Z,99307.55
2018-11-21T10:11:07.386Z,99451.44
2018-11-21T10:13:54.619Z,99452.63
2018-11-21T10:16:34.502Z,99452.14
2018-11-21T10:19:21.690Z,99339.39
2018-11-21T10:21:49.297Z,99455.17
2018-11-21T10:24:36.542Z,99304.58
2018-11-21T10:27:23.744Z,99456.38
2018-11-21T10:30:04.106Z,99464.54
2018-11-21T10:32:51.274Z,99460.81
2018-11-21T10:35:35.838Z,99469.99
2018-11-21T10:38:18.275Z,99407.20
2018-11-21T10:40:45.992Z,99464.77
2018-11-21T10:43:34.098Z,99464.78
2018-11-21T10:46:14.493Z,99468.36
2018-11-21T10:49:01.669Z,99464.86
2018-11-21T10:51:41.964Z,99463.37
2018-11-21T10:54:29.159Z,99459.11
2018-11-21T10:57:09.290Z,99457.91
2018-11-21T11:00:35.507Z,99346.05
2018-11-21T11:03:19.784Z,99318.98
2018-11-21T11:06:26.538Z,99304.78
2018-11-21T11:09:27.715Z,99457.17
2018-11-21T11:12:34.426Z,99457.98
2018-11-21T11:15:36.788Z,99448.54
2018-11-21T11:18:43.461Z,99293.45
2018-11-21T11:21:50.197Z,99457.91
2018-11-21T11:24:50.018Z,99450.11
2018-11-21T11:27:56.720Z,99447.98
2018-11-21T11:30:56.314Z,99440.95
2018-11-21T11:34:03.293Z,99438.52
2018-11-21T11:37:03.568Z,99431.25
2018-11-21T11:40:10.231Z,99429.04
2018-11-21T11:42:57.367Z,99426.32
2018-11-21T11:46:04.131Z,99430.88
2018-11-21T11:52:26.239Z,99424.34
2018-11-21T11:55:32.957Z,99430.19
2018-11-21T11:58:32.872Z,99281.48
2018-11-21T12:01:39.534Z,99432.98
2018-11-21T12:04:39.287Z,99433.77
2018-11-21T12:07:45.980Z,99432.08
2018-11-21T12:10:46.258Z,99273.41
2018-11-21T12:13:52.988Z,99425.14
2018-11-21T12:16:52.839Z,99429.12
2018-11-21T12:19:59.535Z,99434.02
2018-11-21T12:22:59.644Z,99392.06
2018-11-21T12:26:10.417Z,99285.20
2018-11-21T12:29:06.419Z,99274.27
2018-11-21T12:32:13.080Z,99292.98
2018-11-21T12:35:19.792Z,99427.36
2018-11-21T12:38:19.795Z,99429.05
2018-11-21T12:41:26.481Z,99426.16
2018-11-21T12:44:14.663Z,99295.50
2018-11-21T12:47:21.405Z,99422.95
2018-11-21T12:50:21.890Z,99425.40
2018-11-21T12:53:28.692Z,99289.41
2018-11-21T12:56:28.222Z,99278.20
2018-11-21T12:59:35.946Z,99423.84
2018-11-21T13:02:35.983Z,99419.74
2018-11-21T13:05:42.704Z,99417.31
2018-11-21T13:08:36.639Z,99428.45
2018-11-21T13:11:43.319Z,99426.50
2018-11-21T13:14:43.380Z,99424.58
2018-11-21T13:17:43.352Z,99426.84
2018-11-21T13:20:50.114Z,99419.14
2018-11-21T13:23:49.865Z,99426.54
2018-11-21T13:26:59.181Z,99425.78
2018-11-21T13:29:58.684Z,99423.40
2018-11-21T13:32:58.437Z,99429.55
2018-11-21T13:36:05.120Z,99298.05
2018-11-21T13:39:04.700Z,99432.83
2018-11-21T13:42:20.162Z,99434.73
2018-11-21T13:45:23.192Z,99440.28
2018-11-21T13:48:10.312Z,99441.42
2018-11-21T13:51:10.943Z,99442.25
2018-11-21T13:54:10.891Z,99438.89
2018-11-21T13:56:50.773Z,99291.44
2018-11-21T13:59:37.929Z,99447.72
2018-11-21T14:02:18.256Z,99446.27
2018-11-21T14:05:07.850Z,99449.52
2018-11-21T14:07:46.189Z,99451.75
2018-11-21T14:10:26.579Z,99298.68
2018-11-21T14:13:13.741Z,99299.19
2018-11-21T14:15:54.234Z,99453.42
2018-11-21T14:18:41.464Z,99449.98
2018-11-21T14:21:22.270Z,99325.23
2018-11-21T14:24:09.393Z,99454.34
2018-11-21T14:26:49.506Z,99457.12
2018-11-21T14:29:36.651Z,99463.64
2018-11-21T14:32:16.902Z,99464.77
2018-11-21T14:35:05.908Z,99468.17
2018-11-21T14:37:46.785Z,99473.22
2018-11-21T14:40:33.953Z,99475.38
2018-11-21T14:43:14.383Z,99475.41
2018-11-21T14:46:01.535Z,99476.42
2018-11-21T14:48:42.512Z,99484.50
2018-11-21T14:51:22.815Z,99479.56
2018-11-21T14:54:09.933Z,99484.30
2018-11-21T14:56:50.512Z,99487.88
2018-11-21T14:59:37.654Z,99492.29
2018-11-21T15:02:15.634Z,99495.55
2018-11-21T15:05:02.800Z,99498.80
2018-11-21T15:07:43.860Z,99507.42
2018-11-21T15:10:31.129Z,99362.99
2018-11-21T15:12:58.784Z,99509.94
2018-11-21T15:15:45.973Z,99367.83
2018-11-21T15:18:34.075Z,99510.47
2018-11-21T15:21:16.572Z,99503.23
2018-11-21T15:24:01.168Z,99502.15
2018-11-21T15:26:43.244Z,99500.36
2018-11-21T15:29:21.084Z,99503.19
2018-11-21T15:32:01.897Z,99508.23
2018-11-21T15:34:29.551Z,99510.30
2018-11-21T15:37:16.742Z,99514.55
2018-11-21T15:40:06.048Z,99358.22
2018-11-21T15:42:46.644Z,99513.98
2018-11-21T15:45:34.647Z,99358.50
2018-11-21T15:48:15.047Z,99383.83
2018-11-21T15:51:02.228Z,99403.72
2018-11-21T15:53:42.712Z,99410.70
2018-11-21T15:56:49.462Z,99534.69
2018-11-21T15:59:30.004Z,99534.41
2018-11-21T16:02:17.215Z,99405.92
2018-11-21T16:05:05.674Z,99543.22
2018-11-21T16:07:52.863Z,99544.77
2018-11-21T16:10:40.186Z,99391.63
2018-11-21T16:13:27.353Z,99555.41
2018-11-21T16:16:07.373Z,99553.66
2018-11-21T16:18:54.537Z,99552.42
2018-11-21T16:21:35.283Z,99440.16
2018-11-21T16:24:22.822Z,99391.33
2018-11-21T16:27:01.148Z,99555.75
2018-11-21T16:29:48.341Z,99552.75
2018-11-21T16:32:35.520Z,99409.23
2018-11-21T16:35:22.712Z,99562.93
2018-11-21T16:38:02.672Z,99567.44
2018-11-21T16:41:09.402Z,99565.87
2018-11-21T16:43:50.131Z,99435.69
2018-11-21T16:46:37.326Z,99573.34
2018-11-21T16:49:17.853Z,99583.44
2018-11-21T16:52:08.176Z,99425.79
2018-11-21T16:54:48.116Z,99582.23
2018-11-21T16:57:35.343Z,99438.42
2018-11-21T17:00:17.310Z,99585.12
2018-11-21T17:03:04.726Z,99587.44
2018-11-21T17:05:45.366Z,99591.73
2018-11-21T17:08:32.538Z,99595.70
2018-11-21T17:11:13.254Z,99592.41
2018-11-21T17:14:00.438Z,99430.28
2018-11-21T17:16:40.837Z,99446.95
2018-11-21T17:19:28.332Z,99588.02
2018-11-21T17:22:10.854Z,99581.33
2018-11-21T17:24:58.860Z,99583.98
2018-11-21T17:27:39.569Z,99577.80
2018-11-21T17:30:26.705Z,99579.59
2018-11-21T17:33:06.640Z,99577.44
2018-11-21T17:35:53.807Z,99583.10
2018-11-21T17:38:33.847Z,99579.16
2018-11-21T17:41:20.871Z,99579.16
2018-11-21T17:44:00.971Z,99420.05
2018-11-21T17:46:48.106Z,99528.66
2018-11-21T17:49:28.641Z,99584.19
2018-11-21T17:52:15.931Z,99591.70
2018-11-21T17:55:22.811Z,99592.16
2018-11-21T17:58:09.981Z,99589.47
2018-11-21T18:00:50.741Z,99457.41
2018-11-21T18:03:37.936Z,99434.00
2018-11-21T18:06:18.143Z,99592.63
2018-11-21T18:09:08.311Z,99444.42
2018-11-21T18:11:49.012Z,99601.75
2018-11-21T18:14:36.200Z,99451.27
2018-11-21T18:17:16.692Z,99584.55
2018-11-21T18:20:05.609Z,99598.28
2018-11-21T18:22:46.366Z,99602.92
2018-11-21T18:25:35.640Z,99601.42
2018-11-21T18:28:16.152Z,99606.30
2018-11-21T18:31:03.332Z,99606.67
2018-11-21T18:33:44.190Z,99611.36
2018-11-21T18:36:31.449Z,99449.00
2018-11-21T18:39:12.778Z,99605.49
2018-11-21T18:41:59.954Z,99610.55
2018-11-21T18:44:40.215Z,99482.02
2018-11-21T18:47:27.467Z,99618.44
2018-11-21T18:50:15.645Z,99499.55
2018-11-21T18:52:57.090Z,99622.60
2018-11-21T18:55:47.263Z,99514.25
2018-11-21T18:58:47.448Z,99479.31
2018-11-21T19:01:34.618Z,99627.58
2018-11-21T19:04:14.559Z,99631.51
2018-11-21T19:07:01.783Z,99635.75
2018-11-21T19:09:41.950Z,99642.20
2018-11-21T19:12:29.205Z,99480.19
2018-11-21T19:15:11.369Z,99645.14
2018-11-21T19:17:58.556Z,99644.34
2018-11-21T19:20:39.292Z,99642.95
2018-11-21T19:23:26.556Z,99641.77
2018-11-21T19:26:06.457Z,99645.78
2018-11-21T19:28:53.636Z,99646.58
2018-11-21T19:31:34.110Z,99492.30
2018-11-21T19:34:21.276Z,99649.47
2018-11-21T19:37:01.642Z,99652.80
2018-11-21T19:39:48.876Z,99654.34
2018-11-21T19:42:29.237Z,99497.89
2018-11-21T19:45:16.844Z,99661.33
2018-11-21T19:47:59.451Z,99665.45
2018-11-21T19:50:46.608Z,99664.72
2018-11-21T19:53:28.263Z,99594.41
2018-11-21T19:56:08.969Z,99522.31
2018-11-21T19:58:56.338Z,99668.50
2018-11-21T20:01:36.670Z,99551.77
2018-11-21T20:04:23.870Z,99529.09
2018-11-21T20:07:04.765Z,99669.92
2018-11-21T20:09:51.994Z,99669.73
2018-11-21T20:12:32.338Z,99670.01
2018-11-21T20:15:23.668Z,99671.07
2018-11-21T20:18:04.031Z,99673.64
2018-11-21T20:20:51.231Z,99519.13
2018-11-21T20:23:32.096Z,99671.16
2018-11-21T20:26:19.322Z,99668.98
2018-11-21T20:28:59.969Z,99669.80
2018-11-21T20:31:47.106Z,99670.09
2018-11-21T20:34:27.214Z,99668.22
2018-11-21T20:37:14.428Z,99668.88
2018-11-21T20:40:01.590Z,99668.89
2018-11-21T20:42:49.238Z,99537.30
2018-11-21T20:45:29.386Z,99673.02
2018-11-21T20:48:16.826Z,99503.53
2018-11-21T20:50:57.334Z,99578.56
2018-11-21T20:53:44.515Z,99673.02
2018-11-21T20:56:24.678Z,99671.23
2018-11-21T20:59:11.891Z,99505.36
2018-11-21T21:01:51.942Z,99672.06
2018-11-21T21:04:39.151Z,99677.98
2018-11-21T21:07:22.497Z,99676.52
2018-11-21T21:10:07.783Z,99675.39
2018-11-21T21:12:45.978Z,99670.76
2018-11-21T21:15:26.157Z,99673.97
2018-11-21T21:18:14.156Z,99669.55
2018-11-21T21:20:54.838Z,99667.77
2018-11-21T21:23:42.035Z,99664.87
2018-11-21T21:26:22.202Z,99513.80
2018-11-21T21:29:09.419Z,99661.81
2018-11-21T21:31:49.358Z,99663.02
2018-11-21T21:34:36.556Z,99666.13
2018-11-21T21:37:16.458Z,99670.16
2018-11-21T21:40:04.771Z,99538.88
2018-11-21T21:42:45.127Z,99524.09
2018-11-21T21:45:32.292Z,99515.03
2018-11-21T21:48:12.408Z,99672.84
2018-11-21T21:50:59.535Z,99673.14
2018-11-21T21:53:40.119Z,99678.30
2018-11-21T21:56:27.511Z,99516.11
2018-11-21T21:59:07.931Z,99686.28
2018-11-21T22:01:55.084Z,99562.72
2018-11-21T22:04:35.297Z,99680.93
2018-11-21T22:07:22.634Z,99685.99
2018-11-21T22:10:02.624Z,99683.66
2018-11-21T22:12:49.782Z,99578.09
2018-11-21T22:15:32.971Z,99688.11
2018-11-21T22:18:20.125Z,99685.41
2018-11-21T22:21:00.346Z,99685.05
2018-11-21T22:23:47.501Z,99689.88
2018-11-21T22:26:34.725Z,99693.18
2018-11-21T22:29:15.415Z,99690.33
2018-11-21T22:32:02.570Z,99689.74
2018-11-21T22:34:42.933Z,99689.35
2018-11-21T22:37:30.909Z,99528.84
2018-11-21T22:40:12.661Z,99652.38
2018-11-21T22:42:59.890Z,99685.03
2018-11-21T22:45:40.139Z,99687.05
2018-11-21T22:48:27.360Z,99682.70
2018-11-21T22:51:07.414Z,99686.77
2018-11-21T22:53:54.573Z,99687.48
2018-11-21T22:56:35.003Z,99686.50
2018-11-21T22:59:22.192Z,99688.38
2018-11-21T23:02:02.572Z,99536.45
2018-11-21T23:04:49.813Z,99689.34
2018-11-21T23:07:37.753Z,99685.48
2018-11-21T23:10:44.471Z,99690.85
2018-11-21T23:13:25.271Z,99526.37
2018-11-21T23:16:12.412Z,99688.59
2018-11-21T23:18:50.727Z,99688.39
2018-11-21T23:21:37.932Z,99645.46
2018-11-21T23:24:18.188Z,99562.83
2018-11-21T23:27:05.588Z,99528.50
2018-11-21T23:29:45.541Z,99682.65
2018-11-21T23:32:32.696Z,99684.35
2018-11-21T23:35:20.566Z,99680.36
2018-11-21T23:38:01.186Z,99683.17
2018-11-21T23:40:48.351Z,99540.61
2018-11-21T23:43:29.046Z,99522.38
2018-11-21T23:46:16.218Z,99527.30
2018-11-21T23:48:56.687Z,99681.72
2018-11-21T23:51:43.901Z,99679.86
2018-11-21T23:54:24.060Z,99551.52
2018-11-21T23:57:16.077Z,99686.53
2018-11-21T23:59:51.634Z,99686.11
